Terminal Aerodrome Forecast
Issued by NWS Riverton, WY

Home | Current Version | Previous Version | Text Only | Print | Product List | Glossary On
Versions: 1 2 3 4 5 6 7 8 9 10 11 12 13 14 15
000
FTUS45 KRIW 260500
TAFRIW
TAF
KRIW 260527Z 2606/2706 01012G20KT 5SM -SN BKN028
     FM260800 36011KT 6SM -SN SCT030 OVC050
     FM260900 36010KT P6SM -SN OVC040
     FM261200 33009KT P6SM BKN040
     FM261800 33004KT P6SM BKN040=

USA.gov is the U.S. government's official web portal to all federal, state and local government web resources and services.